createdAt,value
2022-12-03T00:01:45.964Z,28.63
2022-12-03T00:05:49.382Z,28.17
2022-12-03T00:09:52.180Z,30.57
2022-12-03T00:13:56.175Z,30.47
2022-12-03T00:17:58.840Z,33.90
2022-12-03T00:22:01.466Z,29.57
2022-12-03T00:26:04.416Z,33.00
2022-12-03T00:30:10.977Z,29.47
2022-12-03T00:34:13.980Z,31.40
2022-12-03T00:38:16.744Z,29.27
2022-12-03T00:42:19.634Z,30.03
2022-12-03T00:46:23.660Z,31.10
2022-12-03T00:50:26.409Z,34.87
2022-12-03T00:54:32.161Z,29.63
2022-12-03T00:58:35.076Z,33.07
2022-12-03T01:02:39.478Z,32.10
2022-12-03T01:06:42.535Z,31.83
2022-12-03T01:10:45.197Z,31.93
2022-12-03T01:14:48.017Z,31.33
2022-12-03T01:18:52.408Z,30.33
2022-12-03T01:22:55.748Z,29.23
2022-12-03T01:26:58.424Z,31.63
2022-12-03T01:31:18.631Z,33.63
2022-12-03T01:35:22.680Z,31.43
2022-12-03T01:39:29.326Z,33.67
2022-12-03T01:43:32.283Z,30.63
2022-12-03T01:47:36.255Z,30.73
2022-12-03T01:51:40.281Z,29.93
2022-12-03T01:55:48.455Z,30.87
2022-12-03T01:59:52.141Z,31.77
2022-12-03T02:03:54.872Z,31.60
2022-12-03T02:07:59.197Z,32.37
2022-12-03T02:12:01.948Z,31.63
2022-12-03T02:16:05.209Z,32.23
2022-12-03T02:20:10.323Z,31.77
2022-12-03T02:24:22.309Z,30.77
2022-12-03T02:28:26.378Z,32.17
2022-12-03T02:32:29.215Z,31.40
2022-12-03T02:36:31.998Z,32.13
2022-12-03T02:40:35.093Z,30.20
2022-12-03T02:44:39.345Z,30.90
2022-12-03T02:48:42.201Z,31.60
2022-12-03T02:52:46.227Z,32.27
2022-12-03T02:56:48.923Z,30.20
2022-12-03T03:00:54.463Z,29.10
2022-12-03T03:04:57.750Z,33.13
2022-12-03T03:09:00.788Z,33.13
2022-12-03T03:13:05.166Z,31.53
2022-12-03T03:17:09.509Z,31.87
2022-12-03T03:21:13.305Z,31.00
2022-12-03T03:25:18.512Z,31.80
2022-12-03T03:29:21.331Z,31.87
2022-12-03T03:33:25.529Z,31.70
2022-12-03T03:37:29.171Z,30.20
2022-12-03T03:41:32.570Z,33.27
2022-12-03T03:45:35.317Z,32.23
2022-12-03T03:49:39.349Z,32.93
2022-12-03T03:53:44.493Z,32.50
2022-12-03T03:57:47.824Z,31.73
2022-12-03T04:01:50.675Z,33.03
2022-12-03T04:05:54.740Z,32.33
2022-12-03T04:09:57.394Z,33.50
2022-12-03T04:14:00.055Z,34.50
2022-12-03T04:18:20.392Z,34.50
2022-12-03T04:22:42.656Z,33.30
2022-12-03T04:27:02.814Z,33.63
2022-12-03T04:31:25.688Z,32.83
2022-12-03T04:35:42.582Z,34.57
2022-12-03T04:39:46.942Z,34.20
2022-12-03T04:44:03.515Z,32.43
2022-12-03T04:48:06.511Z,31.37
2022-12-03T04:52:09.798Z,32.23
2022-12-03T04:56:14.410Z,35.33
2022-12-03T05:00:17.780Z,34.07
2022-12-03T05:04:20.864Z,32.97
2022-12-03T05:08:23.554Z,34.73
2022-12-03T05:12:27.900Z,33.23
2022-12-03T05:16:30.860Z,35.97
2022-12-03T05:20:44.735Z,32.47
2022-12-03T05:24:53.103Z,33.17
2022-12-03T05:28:57.349Z,31.03
2022-12-03T05:33:00.083Z,35.63
2022-12-03T05:37:03.199Z,32.93
2022-12-03T05:41:26.866Z,31.43
2022-12-03T05:45:32.748Z,32.80
2022-12-03T05:49:35.385Z,31.20
2022-12-03T05:53:38.278Z,30.47
2022-12-03T05:57:41.028Z,31.27
2022-12-03T06:01:45.556Z,28.83
2022-12-03T06:05:48.529Z,31.43
2022-12-03T06:09:51.161Z,30.80
2022-12-03T06:13:54.096Z,31.90
2022-12-03T06:17:58.078Z,32.67
2022-12-03T06:22:00.780Z,32.13
2022-12-03T06:26:03.390Z,30.57
2022-12-03T06:30:08.562Z,30.27
2022-12-03T06:34:12.627Z,31.43
2022-12-03T06:38:15.424Z,31.30
2022-12-03T06:42:18.048Z,30.60
2022-12-03T06:46:20.967Z,30.00
2022-12-03T06:50:25.100Z,27.70
2022-12-03T06:54:27.685Z,31.33
2022-12-03T06:58:30.346Z,28.87
2022-12-03T07:02:33.132Z,29.20
2022-12-03T07:06:37.210Z,31.47
2022-12-03T07:10:39.861Z,31.37
2022-12-03T07:14:42.508Z,30.53
2022-12-03T07:18:45.383Z,31.53
2022-12-03T07:22:49.372Z,30.73
2022-12-03T07:26:52.330Z,31.77
2022-12-03T07:30:55.342Z,32.47
2022-12-03T07:34:58.044Z,30.67
2022-12-03T07:39:02.073Z,31.73
2022-12-03T07:43:05.441Z,29.30
2022-12-03T07:47:08.204Z,30.03
2022-12-03T07:51:15.220Z,29.77
2022-12-03T07:55:19.666Z,29.93
2022-12-03T07:59:22.333Z,27.97
2022-12-03T08:03:25.019Z,30.00
2022-12-03T08:07:27.941Z,28.10
2022-12-03T08:11:33.624Z,26.43
2022-12-03T08:15:39.543Z,29.43
2022-12-03T08:19:44.970Z,27.07
2022-12-03T08:23:48.002Z,27.67
2022-12-03T08:27:53.148Z,30.43
2022-12-03T08:31:57.111Z,28.20
2022-12-03T08:36:00.219Z,32.23
2022-12-03T08:40:03.040Z,32.40
2022-12-03T08:44:19.370Z,31.50
2022-12-03T08:48:33.652Z,32.10
2022-12-03T08:52:36.866Z,36.93
2022-12-03T08:56:40.120Z,28.17
2022-12-03T09:00:44.885Z,32.73
2022-12-03T09:04:47.823Z,42.27
2022-12-03T09:08:50.982Z,29.20
2022-12-03T09:12:53.810Z,29.07
2022-12-03T09:16:57.926Z,27.00
2022-12-03T09:21:01.084Z,32.23
2022-12-03T09:25:03.723Z,32.57
2022-12-03T09:29:11.935Z,38.43
2022-12-03T09:33:16.552Z,27.67
2022-12-03T09:37:19.259Z,27.00
2022-12-03T09:41:22.105Z,28.33
2022-12-03T09:45:25.127Z,26.47
2022-12-03T09:49:31.822Z,27.80
2022-12-03T09:53:40.857Z,28.07
2022-12-03T09:57:43.926Z,23.17
2022-12-03T10:01:46.694Z,28.40
2022-12-03T10:05:51.503Z,27.93
2022-12-03T10:09:54.542Z,25.50
2022-12-03T10:13:59.068Z,28.87
2022-12-03T10:18:02.120Z,27.93
2022-12-03T10:22:06.470Z,26.60
2022-12-03T10:26:09.430Z,28.20
2022-12-03T10:30:17.579Z,28.53
2022-12-03T10:34:25.900Z,30.33
2022-12-03T10:38:30.162Z,28.47
2022-12-03T10:42:34.755Z,29.80
2022-12-03T10:46:37.773Z,28.00
2022-12-03T10:50:48.905Z,28.33
2022-12-03T10:54:53.309Z,27.37
2022-12-03T10:58:56.439Z,24.13
2022-12-03T11:02:59.098Z,25.33
2022-12-03T11:07:03.072Z,24.03
2022-12-03T11:11:08.832Z,21.93
2022-12-03T11:15:16.522Z,26.27
2022-12-03T11:19:21.566Z,23.20
2022-12-03T11:23:58.022Z,23.70
2022-12-03T11:28:38.196Z,25.13
2022-12-03T11:33:09.767Z,28.97
2022-12-03T11:37:26.416Z,19.47
2022-12-03T11:41:31.794Z,23.40
2022-12-03T11:45:35.887Z,19.37
2022-12-03T11:49:48.841Z,19.87
2022-12-03T11:53:53.114Z,21.63
2022-12-03T11:57:58.548Z,26.03
2022-12-03T12:02:01.198Z,22.60
2022-12-03T12:06:07.943Z,15.97
2022-12-03T12:10:12.042Z,22.33
2022-12-03T12:14:14.814Z,18.63
2022-12-03T12:18:37.286Z,18.87
2022-12-03T12:22:41.334Z,22.63
2022-12-03T12:26:51.391Z,17.33
2022-12-03T12:30:54.080Z,20.80
2022-12-03T12:35:00.585Z,17.80
2022-12-03T12:39:09.023Z,19.50
2022-12-03T12:43:23.765Z,22.00
2022-12-03T12:47:27.246Z,19.27
2022-12-03T12:51:30.201Z,20.27
2022-12-03T12:55:34.218Z,18.27
2022-12-03T12:59:36.860Z,18.97
2022-12-03T13:03:40.665Z,17.10
2022-12-03T13:07:44.506Z,17.60
2022-12-03T13:11:53.178Z,15.93
2022-12-03T13:16:01.336Z,17.60
2022-12-03T13:20:08.601Z,15.53
2022-12-03T13:24:27.850Z,22.00
2022-12-03T13:28:33.679Z,15.13
2022-12-03T13:32:38.555Z,13.13
2022-12-03T13:36:43.917Z,14.93
2022-12-03T13:40:47.062Z,13.73
2022-12-03T13:44:51.237Z,14.53
2022-12-03T13:48:56.362Z,13.47
2022-12-03T13:53:04.435Z,14.33
2022-12-03T13:57:07.125Z,12.23
2022-12-03T14:01:11.500Z,12.33
2022-12-03T14:05:14.242Z,14.03
2022-12-03T14:09:16.852Z,13.17
2022-12-03T14:13:19.873Z,12.60
2022-12-03T14:17:24.066Z,12.83
2022-12-03T14:21:26.722Z,13.57
2022-12-03T14:25:29.400Z,16.17
2022-12-03T14:29:32.298Z,11.77
2022-12-03T14:33:36.540Z,11.23
2022-12-03T14:37:39.245Z,10.80
2022-12-03T14:41:59.322Z,10.27
2022-12-03T14:46:02.176Z,11.50
2022-12-03T14:50:08.246Z,12.00
2022-12-03T14:54:11.100Z,11.03
2022-12-03T14:58:14.115Z,10.13
2022-12-03T15:02:16.853Z,10.23
2022-12-03T15:06:21.042Z,12.90
2022-12-03T15:10:23.742Z,11.00
2022-12-03T15:14:26.831Z,10.47
2022-12-03T15:18:30.661Z,46.87
2022-12-03T15:22:35.112Z,11.97
2022-12-03T15:26:38.234Z,13.67
2022-12-03T15:30:40.972Z,12.53
2022-12-03T15:34:43.835Z,10.33
2022-12-03T15:39:03.095Z,10.27
2022-12-03T15:43:06.064Z,12.50
2022-12-03T15:47:08.990Z,10.40
2022-12-03T15:51:11.718Z,11.17
2022-12-03T15:55:16.232Z,12.13
2022-12-03T15:59:18.862Z,12.40
2022-12-03T16:03:21.628Z,11.17
2022-12-03T16:07:24.352Z,10.47
2022-12-03T16:11:28.347Z,12.53
2022-12-03T16:15:31.107Z,11.63
2022-12-03T16:19:33.870Z,21.17
2022-12-03T16:23:36.768Z,12.60
2022-12-03T16:27:40.767Z,13.33
2022-12-03T16:31:43.655Z,11.97
2022-12-03T16:35:46.361Z,10.67
2022-12-03T16:39:50.575Z,11.70
2022-12-03T16:43:54.657Z,12.30
2022-12-03T16:47:57.370Z,11.93
2022-12-03T16:52:00.038Z,12.93
2022-12-03T16:56:03.280Z,21.17
2022-12-03T17:00:08.748Z,12.63
2022-12-03T17:04:11.402Z,13.10
2022-12-03T17:08:14.661Z,12.57
2022-12-03T17:12:17.397Z,11.73
2022-12-03T17:16:21.529Z,12.40
2022-12-03T17:20:24.227Z,14.70
2022-12-03T17:24:26.930Z,10.17
2022-12-03T17:28:29.819Z,11.80
2022-12-03T17:32:34.181Z,11.23
2022-12-03T17:36:37.001Z,12.23
2022-12-03T17:40:39.813Z,14.00
2022-12-03T17:44:42.539Z,12.47
2022-12-03T17:48:46.651Z,12.83
2022-12-03T17:52:49.680Z,15.43
2022-12-03T17:56:52.488Z,13.73
2022-12-03T18:01:00.489Z,14.87
2022-12-03T18:05:07.252Z,12.30
2022-12-03T18:09:09.981Z,13.17
2022-12-03T18:13:12.715Z,13.70
2022-12-03T18:17:15.345Z,13.90
2022-12-03T18:21:19.711Z,13.53
2022-12-03T18:25:22.347Z,15.67
2022-12-03T18:29:25.052Z,16.70
2022-12-03T18:33:28.381Z,25.13
2022-12-03T18:37:33.006Z,16.77
2022-12-03T18:41:36.195Z,17.40
2022-12-03T18:45:39.066Z,14.63
2022-12-03T18:49:42.132Z,16.33
2022-12-03T18:53:46.562Z,19.37
2022-12-03T18:57:49.323Z,15.53
2022-12-03T19:01:52.114Z,15.67
2022-12-03T19:05:54.765Z,16.47
2022-12-03T19:09:58.824Z,16.70
2022-12-03T19:14:02.864Z,23.03
2022-12-03T19:18:07.400Z,16.97
2022-12-03T19:22:10.384Z,17.43
2022-12-03T19:26:14.490Z,20.27
2022-12-03T19:30:17.648Z,16.07
2022-12-03T19:34:20.767Z,16.63
2022-12-03T19:38:24.192Z,15.70
2022-12-03T19:42:28.665Z,16.17
2022-12-03T19:46:31.421Z,14.53
2022-12-03T19:50:34.122Z,16.67
2022-12-03T19:54:37.425Z,15.67
2022-12-03T19:58:42.947Z,15.57
2022-12-03T20:02:45.701Z,15.60
2022-12-03T20:06:48.460Z,19.03
2022-12-03T20:10:51.145Z,14.17
2022-12-03T20:14:55.623Z,15.30
2022-12-03T20:18:59.555Z,13.90
2022-12-03T20:23:02.566Z,14.00
2022-12-03T20:27:05.270Z,17.70
2022-12-03T20:31:13.273Z,14.93
2022-12-03T20:35:16.171Z,27.00
2022-12-03T20:39:19.229Z,19.77
2022-12-03T20:43:21.964Z,22.70
2022-12-03T20:47:25.959Z,20.87
2022-12-03T20:51:30.699Z,17.50
2022-12-03T20:55:33.537Z,14.37
2022-12-03T20:59:36.158Z,16.00
2022-12-03T21:03:40.455Z,16.93
2022-12-03T21:07:43.198Z,16.43
2022-12-03T21:11:46.060Z,19.97
2022-12-03T21:15:48.698Z,21.80
2022-12-03T21:19:53.326Z,29.20
2022-12-03T21:23:57.073Z,16.87
2022-12-03T21:28:00.042Z,15.67
2022-12-03T21:32:03.084Z,15.43
2022-12-03T21:36:08.581Z,15.67
2022-12-03T21:40:11.902Z,18.67
2022-12-03T21:44:15.093Z,15.53
2022-12-03T21:48:18.354Z,15.23
2022-12-03T21:52:22.376Z,16.03
2022-12-03T21:56:24.988Z,15.33
2022-12-03T22:00:27.731Z,14.47
2022-12-03T22:04:30.691Z,17.23
2022-12-03T22:08:34.723Z,15.53
2022-12-03T22:12:37.686Z,15.97
2022-12-03T22:16:40.331Z,17.07
2022-12-03T22:20:43.011Z,15.70
2022-12-03T22:24:47.581Z,14.33
2022-12-03T22:28:50.833Z,15.57
2022-12-03T22:32:53.798Z,16.20
2022-12-03T22:36:56.517Z,16.77
2022-12-03T22:41:00.983Z,14.20
2022-12-03T22:45:04.070Z,14.27
2022-12-03T22:49:07.775Z,13.20
2022-12-03T22:53:10.877Z,14.17
2022-12-03T22:57:15.702Z,13.17
2022-12-03T23:01:22.630Z,13.13
2022-12-03T23:05:25.470Z,12.30
2022-12-03T23:09:28.164Z,12.73
2022-12-03T23:13:32.162Z,13.87
2022-12-03T23:17:34.822Z,12.30
2022-12-03T23:21:37.659Z,13.53
2022-12-03T23:25:40.503Z,12.33
2022-12-03T23:29:44.823Z,13.27
2022-12-03T23:33:48.466Z,11.10
2022-12-03T23:37:51.185Z,10.87
2022-12-03T23:41:53.920Z,10.80
2022-12-03T23:46:03.713Z,11.47
2022-12-03T23:50:07.632Z,10.43
2022-12-03T23:54:12.055Z,11.07
2022-12-03T23:58:14.991Z,11.57
